Time;durP1;ratioP1;P1;durP2;ratioP2;P2;SDS_P1;SDS_P2;PMS_P1;PMS_P2;Temp;Humidity;BMP_temperature;BMP_pressure;BME280_temperature;BME280_humidity;BME280_pressure;Samples;Min_cycle;Max_cycle;Signal;HPM_P1;HPM_P2
2020/12/01 00:01:56;;;;;;;34.28;3.50;;;8.10;99.90;;;;;;5089497;28;20025;-61
2020/12/01 00:04:21;;;;;;;28.60;3.20;;;8.10;99.90;;;;;;5066057;28;20093;-61
2020/12/01 00:06:47;;;;;;;27.55;3.35;;;8.10;99.90;;;;;;5067560;28;20124;-62
2020/12/01 00:09:14;;;;;;;28.90;3.75;;;8.10;99.90;;;;;;5066801;28;20016;-62
2020/12/01 00:11:39;;;;;;;33.25;4.57;;;8.10;99.90;;;;;;5058960;28;20083;-62
2020/12/01 00:14:05;;;;;;;33.75;3.65;;;8.10;99.90;;;;;;5062734;28;20037;-61
2020/12/01 00:16:30;;;;;;;33.65;2.70;;;8.10;99.90;;;;;;5076380;28;20078;-60
2020/12/01 00:18:56;;;;;;;28.42;4.28;;;8.10;99.90;;;;;;5074486;28;20032;-61
2020/12/01 00:21:22;;;;;;;34.65;3.72;;;8.00;99.90;;;;;;5078569;28;20025;-61
2020/12/01 00:23:48;;;;;;;30.13;3.85;;;8.00;99.90;;;;;;5080334;28;20678;-63
2020/12/01 00:26:18;;;;;;;32.83;4.20;;;8.10;99.90;;;;;;5063813;28;20482;-60
2020/12/01 00:28:48;;;;;;;24.90;3.88;;;8.20;99.90;;;;;;5057042;28;20070;-61
2020/12/01 00:31:14;;;;;;;30.90;5.47;;;8.20;99.90;;;;;;5061808;28;20043;-62
2020/12/01 00:33:40;;;;;;;33.67;4.18;;;8.30;99.90;;;;;;5062324;28;20047;-62
2020/12/01 00:36:06;;;;;;;40.10;4.60;;;8.30;99.90;;;;;;5067023;28;20045;-62
2020/12/01 00:38:32;;;;;;;31.90;3.97;;;8.30;99.90;;;;;;5055727;28;20028;-61
2020/12/01 00:40:57;;;;;;;41.80;4.88;;;8.20;99.90;;;;;;5061853;28;20017;-61
2020/12/01 00:43:23;;;;;;;35.85;5.32;;;8.20;99.90;;;;;;5063301;28;20025;-61
2020/12/01 00:45:49;;;;;;;24.30;4.88;;;8.20;99.90;;;;;;5069305;28;20089;-61
2020/12/01 00:48:16;;;;;;;25.60;3.53;;;8.20;99.90;;;;;;5063704;28;20029;-61
2020/12/01 00:50:42;;;;;;;26.65;3.58;;;8.30;99.90;;;;;;5067711;28;20017;-62
2020/12/01 00:53:09;;;;;;;34.90;3.78;;;8.30;99.90;;;;;;5064930;28;20112;-61
2020/12/01 00:55:34;;;;;;;45.55;3.95;;;8.20;99.90;;;;;;5055944;28;20068;-61
2020/12/01 00:58:00;;;;;;;28.08;3.35;;;8.30;99.90;;;;;;5066026;28;20526;-62
2020/12/01 01:00:28;;;;;;;20.98;4.38;;;8.30;99.90;;;;;;5056322;28;20025;-62
2020/12/01 01:02:54;;;;;;;37.50;5.03;;;8.30;99.90;;;;;;5070228;28;20043;-62
2020/12/01 01:05:20;;;;;;;22.45;3.85;;;8.30;99.90;;;;;;5085573;28;20047;-63
2020/12/01 01:07:45;;;;;;;26.38;4.00;;;8.30;99.90;;;;;;5071113;28;20570;-62
2020/12/01 01:10:21;;;;;;;21.30;2.83;;;8.40;99.90;;;;;;5053913;28;20029;-59
2020/12/01 01:12:47;;;;;;;26.95;3.30;;;8.40;99.90;;;;;;5078015;28;20032;-61
2020/12/01 01:15:13;;;;;;;21.17;3.08;;;8.40;99.90;;;;;;5066722;28;20419;-62
2020/12/01 01:17:39;;;;;;;30.60;4.18;;;8.30;99.90;;;;;;5067627;28;20505;-61
2020/12/01 01:20:06;;;;;;;29.25;3.67;;;8.30;99.90;;;;;;5053732;28;20021;-60
2020/12/01 01:22:31;;;;;;;31.35;3.38;;;8.30;99.90;;;;;;5053114;28;20060;-60
2020/12/01 01:24:57;;;;;;;23.42;2.35;;;8.20;99.90;;;;;;5069878;28;20483;-63
2020/12/01 01:27:23;;;;;;;30.67;3.40;;;8.20;99.90;;;;;;5067361;28;20075;-61
2020/12/01 01:29:48;;;;;;;20.58;2.92;;;8.20;99.90;;;;;;5061855;28;20036;-62
2020/12/01 01:32:14;;;;;;;21.02;2.70;;;8.30;99.90;;;;;;5071221;28;20036;-61
2020/12/01 01:34:39;;;;;;;27.92;3.15;;;8.30;99.90;;;;;;5071511;28;20498;-61
2020/12/01 01:37:05;;;;;;;18.08;2.85;;;8.40;99.90;;;;;;5055631;28;20175;-62
2020/12/01 01:39:31;;;;;;;22.02;2.55;;;8.30;99.90;;;;;;5066784;28;20055;-61
2020/12/01 01:41:56;;;;;;;19.88;3.10;;;8.20;99.90;;;;;;5068694;28;20056;-61
2020/12/01 01:44:28;;;;;;;19.02;2.70;;;8.20;99.90;;;;;;5069639;28;20505;-60
2020/12/01 01:47:21;;;;;;;20.60;2.90;;;8.30;99.90;;;;;;5066164;28;20041;-62
2020/12/01 01:50:00;;;;;;;15.88;2.70;;;8.20;99.90;;;;;;5058962;28;20060;-60
2020/12/01 01:52:35;;;;;;;17.95;3.10;;;8.10;99.90;;;;;;5064147;28;20027;-61
2020/12/01 01:55:07;;;;;;;19.77;2.58;;;8.10;99.90;;;;;;5068597;28;20035;-61
2020/12/01 01:57:33;;;;;;;25.92;2.85;;;8.10;99.90;;;;;;5051118;28;20062;-62
2020/12/01 01:59:59;;;;;;;18.38;2.40;;;8.00;99.90;;;;;;5063345;28;20029;-63
2020/12/01 02:02:25;;;;;;;24.08;3.13;;;8.10;99.90;;;;;;5069530;28;20028;-60
2020/12/01 02:04:51;;;;;;;25.80;2.83;;;8.00;99.90;;;;;;5079635;28;20036;-62
2020/12/01 02:07:19;;;;;;;27.20;2.22;;;8.00;99.90;;;;;;5070471;28;20064;-62
2020/12/01 02:09:55;;;;;;;16.20;2.10;;;8.00;99.90;;;;;;5063885;28;20047;-62
2020/12/01 02:12:21;;;;;;;22.25;2.85;;;8.00;99.90;;;;;;5061664;28;20118;-60
2020/12/01 02:14:49;;;;;;;14.10;2.10;;;8.00;99.90;;;;;;5058472;28;20040;-63
2020/12/01 02:17:24;;;;;;;17.17;2.97;;;8.00;99.90;;;;;;5072429;28;20028;-63
2020/12/01 02:19:55;;;;;;;14.77;2.17;;;8.10;99.90;;;;;;5065166;28;20024;-62
2020/12/01 02:22:23;;;;;;;15.07;1.98;;;8.10;99.90;;;;;;5069946;28;20035;-63
2020/12/01 02:24:51;;;;;;;17.92;1.90;;;8.10;99.90;;;;;;5067387;28;20028;-62
2020/12/01 02:27:21;;;;;;;14.43;2.60;;;8.10;99.90;;;;;;5059789;28;20021;-59
2020/12/01 02:29:49;;;;;;;16.20;1.70;;;8.00;99.90;;;;;;5060283;28;20116;-61
2020/12/01 02:32:16;;;;;;;16.27;2.03;;;8.00;99.90;;;;;;5071321;28;20028;-61
2020/12/01 02:34:45;;;;;;;14.95;2.08;;;8.00;99.90;;;;;;5071403;28;20087;-62
2020/12/01 02:37:14;;;;;;;18.42;2.03;;;8.00;99.90;;;;;;5058915;28;20025;-60
2020/12/01 02:39:40;;;;;;;11.18;1.80;;;8.10;99.90;;;;;;5064442;28;20033;-62
2020/12/01 02:42:09;;;;;;;16.77;1.90;;;8.10;99.90;;;;;;5063667;28;20110;-62
2020/12/01 02:44:35;;;;;;;17.33;1.73;;;8.10;99.90;;;;;;5064233;28;20041;-63
2020/12/01 02:47:04;;;;;;;7.75;1.17;;;8.10;99.90;;;;;;5064038;28;20035;-62
2020/12/01 02:49:31;;;;;;;17.60;1.98;;;8.10;99.90;;;;;;5063315;28;20492;-62
2020/12/01 02:51:56;;;;;;;20.13;2.53;;;8.10;99.90;;;;;;5053524;28;20028;-63
2020/12/01 02:54:22;;;;;;;15.85;1.60;;;8.10;99.90;;;;;;5062348;28;20036;-61
2020/12/01 02:56:48;;;;;;;9.20;1.75;;;8.00;99.90;;;;;;5065176;28;20031;-62
2020/12/01 02:59:14;;;;;;;17.45;2.50;;;8.00;99.90;;;;;;5072632;28;20668;-63
2020/12/01 03:01:40;;;;;;;15.30;1.65;;;8.00;99.90;;;;;;5073558;28;20051;-62
2020/12/01 03:04:06;;;;;;;13.75;1.95;;;8.00;99.90;;;;;;5059221;28;20021;-62
2020/12/01 03:06:31;;;;;;;18.10;3.08;;;8.00;99.90;;;;;;5060005;28;20029;-62
2020/12/01 03:08:57;;;;;;;20.80;2.03;;;7.90;99.90;;;;;;5067753;28;20028;-63
2020/12/01 03:11:23;;;;;;;17.50;2.50;;;7.90;99.90;;;;;;5066741;28;20082;-62
2020/12/01 03:13:48;;;;;;;20.75;2.58;;;7.90;99.90;;;;;;5072003;28;20398;-63
2020/12/01 03:16:14;;;;;;;9.07;1.40;;;7.80;99.90;;;;;;5077555;28;20073;-61
2020/12/01 03:18:43;;;;;;;15.20;1.85;;;7.90;99.90;;;;;;5087570;28;20023;-64
2020/12/01 03:21:11;;;;;;;17.13;2.00;;;7.80;99.90;;;;;;5085885;28;20040;-63
2020/12/01 03:23:37;;;;;;;17.58;1.52;;;7.80;99.90;;;;;;5068731;28;20051;-60
2020/12/01 03:26:03;;;;;;;10.70;2.13;;;7.90;99.90;;;;;;5057078;28;20443;-61
2020/12/01 03:28:29;;;;;;;15.10;1.58;;;8.00;99.90;;;;;;5068271;28;20025;-61
2020/12/01 03:30:55;;;;;;;14.07;1.48;;;7.90;99.90;;;;;;5072611;28;20052;-62
2020/12/01 03:33:21;;;;;;;17.38;2.22;;;8.00;99.90;;;;;;5071521;28;20035;-63
2020/12/01 03:35:46;;;;;;;11.68;2.55;;;8.00;99.90;;;;;;5061639;28;20100;-62
2020/12/01 03:38:12;;;;;;;9.60;1.98;;;8.00;99.90;;;;;;5065860;28;20099;-62
2020/12/01 03:40:38;;;;;;;19.10;2.53;;;8.00;99.90;;;;;;5058532;28;20025;-62
2020/12/01 03:43:04;;;;;;;12.50;1.35;;;8.00;99.90;;;;;;5060223;28;20415;-62
2020/12/01 03:45:31;;;;;;;21.30;2.55;;;8.10;99.90;;;;;;5070513;28;20099;-62
2020/12/01 03:47:57;;;;;;;16.73;2.10;;;8.10;99.90;;;;;;5068967;28;20422;-62
2020/12/01 03:50:25;;;;;;;11.45;2.05;;;8.20;99.90;;;;;;5063575;28;20021;-62
2020/12/01 03:52:50;;;;;;;18.27;2.28;;;8.20;99.90;;;;;;5063612;28;20186;-62
2020/12/01 03:55:17;;;;;;;17.38;2.38;;;8.20;99.90;;;;;;5065639;28;20713;-62
2020/12/01 03:57:43;;;;;;;10.80;1.60;;;8.10;99.90;;;;;;5059804;28;20085;-62
2020/12/01 04:00:11;;;;;;;11.10;1.50;;;8.10;99.90;;;;;;5067793;28;20032;-62
2020/12/01 04:02:37;;;;;;;14.48;1.98;;;8.10;99.90;;;;;;5060351;28;20037;-63
2020/12/01 04:05:04;;;;;;;21.65;2.45;;;8.10;99.90;;;;;;5061382;28;20085;-63
2020/12/01 04:07:30;;;;;;;20.80;2.15;;;8.10;99.90;;;;;;5064978;28;20068;-62
2020/12/01 04:09:57;;;;;;;20.40;1.75;;;8.10;99.90;;;;;;5061185;28;20106;-61
2020/12/01 04:12:23;;;;;;;13.90;2.75;;;8.00;99.90;;;;;;5066136;28;20025;-62
2020/12/01 04:14:49;;;;;;;8.05;1.67;;;8.00;99.90;;;;;;5067808;28;20024;-64
2020/12/01 04:17:14;;;;;;;15.32;1.75;;;8.00;99.90;;;;;;5071634;28;20027;-62
2020/12/01 04:19:41;;;;;;;10.90;1.77;;;8.00;99.90;;;;;;5069046;28;20032;-62
2020/12/01 04:22:07;;;;;;;10.10;1.88;;;8.00;99.90;;;;;;5062566;28;20021;-61
2020/12/01 04:24:32;;;;;;;17.88;2.35;;;8.10;99.90;;;;;;5066688;28;20047;-62
2020/12/01 04:26:58;;;;;;;13.40;2.15;;;8.20;99.90;;;;;;5065605;28;20090;-61
2020/12/01 04:29:23;;;;;;;16.80;2.72;;;8.20;99.90;;;;;;5062774;28;20028;-62
2020/12/01 04:31:49;;;;;;;15.10;2.47;;;8.20;99.90;;;;;;5065386;28;20107;-61
2020/12/01 04:34:15;;;;;;;23.50;3.53;;;8.30;99.90;;;;;;5068030;28;20052;-62
2020/12/01 04:36:40;;;;;;;27.80;3.13;;;8.40;99.90;;;;;;5064883;28;20131;-62
2020/12/01 04:39:06;;;;;;;23.38;2.83;;;8.50;99.90;;;;;;5064771;28;20386;-61
2020/12/01 04:41:31;;;;;;;32.38;3.38;;;8.50;99.90;;;;;;5061797;28;20020;-61
2020/12/01 04:44:00;;;;;;;36.08;4.60;;;8.60;99.90;;;;;;5062316;28;20662;-62
2020/12/01 04:46:30;;;;;;;20.70;3.42;;;8.60;99.90;;;;;;5066869;28;20028;-61
2020/12/01 04:49:04;;;;;;;25.92;2.70;;;8.60;99.90;;;;;;5064498;28;20064;-63
2020/12/01 04:51:38;;;;;;;28.05;3.47;;;8.60;99.90;;;;;;5065044;28;20067;-62
2020/12/01 04:54:15;;;;;;;21.65;3.25;;;8.60;99.90;;;;;;5059759;28;20507;-62
2020/12/01 04:57:15;;;;;;;24.13;3.22;;;8.60;99.90;;;;;;5062647;28;20032;-62
2020/12/01 04:59:46;;;;;;;25.73;2.70;;;8.60;99.90;;;;;;5065711;28;20065;-64
2020/12/01 05:02:46;;;;;;;34.60;4.88;;;8.70;99.90;;;;;;5064493;28;20048;-61
2020/12/01 05:05:23;;;;;;;24.52;3.58;;;8.70;99.90;;;;;;5048827;28;20041;-60
2020/12/01 05:08:33;;;;;;;19.65;3.20;;;8.60;99.90;;;;;;5061870;28;20040;-63
2020/12/01 05:11:23;;;;;;;16.30;2.97;;;8.70;99.90;;;;;;5075176;28;20046;-61
2020/12/01 05:13:59;;;;;;;22.55;3.08;;;8.70;99.90;;;;;;5054684;28;20029;-62
2020/12/01 05:17:12;;;;;;;22.10;3.65;;;8.70;99.90;;;;;;5065835;28;20033;-63
2020/12/01 05:19:40;;;;;;;;;;;8.60;99.90;;;;;;5007281;28;20037;-62
2020/12/01 05:22:06;;;;;;;22.40;3.05;;;8.60;99.90;;;;;;5056809;28;20400;-64
2020/12/01 05:24:53;;;;;;;22.20;3.10;;;8.60;99.90;;;;;;5056291;28;20048;-61
2020/12/01 05:27:28;;;;;;;15.75;3.38;;;8.60;99.90;;;;;;5059546;28;20638;-64
2020/12/01 05:30:00;;;;;;;15.90;3.78;;;8.60;99.90;;;;;;5063924;28;20029;-62
2020/12/01 05:32:28;;;;;;;17.45;2.78;;;8.50;99.90;;;;;;5087007;28;20029;-64
2020/12/01 05:34:53;;;;;;;20.42;2.92;;;8.50;99.90;;;;;;5080889;28;20045;-62
2020/12/01 05:37:19;;;;;;;19.10;3.03;;;8.50;99.90;;;;;;5085541;28;20009;-63
2020/12/01 05:39:45;;;;;;;24.23;2.85;;;8.50;99.90;;;;;;5082263;28;20035;-62
2020/12/01 05:42:19;;;;;;;19.98;3.47;;;8.50;99.90;;;;;;5063632;28;20021;-64
2020/12/01 05:44:58;;;;;;;24.15;3.63;;;8.50;99.90;;;;;;5059493;28;20622;-61
2020/12/01 05:47:37;;;;;;;26.20;4.07;;;8.50;99.90;;;;;;5055348;28;20029;-62
2020/12/01 05:50:10;;;;;;;23.05;3.25;;;8.50;99.90;;;;;;5056550;28;20098;-62
2020/12/01 05:53:03;;;;;;;28.05;3.55;;;8.50;99.90;;;;;;5069041;28;20082;-63
2020/12/01 05:55:30;;;;;;;23.00;2.90;;;8.50;99.90;;;;;;5059723;28;20059;-64
2020/12/01 05:58:03;;;;;;;27.50;3.70;;;8.50;99.90;;;;;;5066676;28;20479;-63
2020/12/01 06:00:32;;;;;;;18.35;3.25;;;8.40;99.90;;;;;;5065438;28;20025;-62
2020/12/01 06:03:10;;;;;;;26.52;3.33;;;8.40;99.90;;;;;;5064685;28;20032;-62
2020/12/01 06:05:40;;;;;;;23.48;3.28;;;8.50;99.90;;;;;;5065516;28;20035;-62
2020/12/01 06:08:30;;;;;;;21.88;3.13;;;8.40;99.90;;;;;;5064906;28;20074;-61
2020/12/01 06:11:16;;;;;;;24.05;3.15;;;8.40;99.90;;;;;;5066173;28;20039;-62
2020/12/01 06:13:45;;;;;;;25.15;3.63;;;8.50;99.90;;;;;;5064453;28;20047;-63
2020/12/01 06:16:36;;;;;;;26.40;3.42;;;8.60;99.90;;;;;;5063016;28;20562;-61
2020/12/01 06:19:21;;;;;;;21.30;4.35;;;8.70;99.90;;;;;;5066963;28;20024;-63
2020/12/01 06:22:25;;;;;;;23.30;4.20;;;8.70;99.90;;;;;;5070552;28;20039;-65
2020/12/01 06:25:37;;;;;;;20.67;2.58;;;8.70;99.90;;;;;;4973466;28;20062;-63
2020/12/01 06:28:32;;;;;;;22.08;3.20;;;8.70;99.90;;;;;;4982795;28;20129;-63
2020/12/01 06:31:35;;;;;;;19.02;3.92;;;8.60;99.90;;;;;;5068785;28;20119;-63
2020/12/01 06:34:26;;;;;;;18.35;3.20;;;8.60;99.90;;;;;;5070045;28;20070;-62
2020/12/01 06:37:10;;;;;;;32.50;4.40;;;8.50;99.90;;;;;;5092010;28;20062;-60
2020/12/01 06:40:05;;;;;;;25.92;3.60;;;8.50;99.90;;;;;;5080561;28;20033;-64
2020/12/01 06:42:36;;;;;;;21.23;3.38;;;8.40;99.90;;;;;;5067973;28;20110;-61
2020/12/01 06:45:22;;;;;;;21.10;3.72;;;8.40;99.90;;;;;;5062379;28;20086;-62
2020/12/01 06:47:50;;;;;;;26.98;4.85;;;8.50;99.90;;;;;;5060985;28;20032;-63
2020/12/01 06:50:19;;;;;;;34.95;4.88;;;8.50;99.90;;;;;;5064149;28;20021;-64
2020/12/01 06:53:00;;;;;;;27.40;5.18;;;8.50;99.90;;;;;;5071338;28;20033;-61
2020/12/01 06:55:42;;;;;;;26.88;4.40;;;8.50;99.90;;;;;;5055621;28;20016;-64
2020/12/01 06:58:19;;;;;;;32.35;3.72;;;8.50;99.90;;;;;;5059146;28;20036;-62
2020/12/01 07:00:45;;;;;;;33.78;5.53;;;8.60;99.90;;;;;;5056124;28;20527;-62
2020/12/01 07:03:10;;;;;;;28.50;4.38;;;8.60;99.90;;;;;;5070208;28;20025;-65
2020/12/01 07:05:36;;;;;;;41.53;6.22;;;8.60;99.90;;;;;;5064029;28;20024;-61
2020/12/01 07:08:22;;;;;;;21.85;4.38;;;8.70;99.90;;;;;;5058756;28;20021;-63
2020/12/01 07:10:47;;;;;;;25.70;4.45;;;8.70;99.90;;;;;;5056142;28;20075;-65
2020/12/01 07:13:40;;;;;;;25.70;3.65;;;8.70;99.90;;;;;;5058085;28;20036;-61
2020/12/01 07:16:07;;;;;;;;;;;8.70;99.90;;;;;;5048102;28;20158;-64
2020/12/01 07:18:35;;;;;;;16.40;3.42;;;8.60;99.90;;;;;;5062649;28;19956;-61
2020/12/01 07:21:12;;;;;;;25.45;4.50;;;8.60;99.90;;;;;;5065380;28;20021;-63
2020/12/01 07:23:51;;;;;;;44.13;5.70;;;8.50;99.90;;;;;;5069403;28;20490;-63
2020/12/01 07:26:47;;;;;;;26.20;3.72;;;8.50;99.90;;;;;;5058577;28;20475;-62
2020/12/01 07:29:49;;;;;;;40.97;4.43;;;8.50;99.90;;;;;;5056390;28;20094;-62
2020/12/01 07:32:21;;;;;;;42.00;5.45;;;8.50;99.90;;;;;;5059838;28;20028;-62
2020/12/01 07:34:49;;;;;;;39.42;5.70;;;8.50;99.90;;;;;;5069560;28;20047;-63
2020/12/01 07:37:29;;;;;;;34.10;5.40;;;8.50;99.90;;;;;;5058197;28;20028;-63
2020/12/01 07:39:59;;;;;;;29.08;3.95;;;8.40;99.90;;;;;;5069405;28;20028;-61
2020/12/01 07:42:29;;;;;;;31.67;5.13;;;8.50;99.90;;;;;;5057029;28;20214;-61
2020/12/01 07:44:56;;;;;;;29.42;4.57;;;8.50;99.90;;;;;;5069792;28;20070;-63
2020/12/01 07:47:25;;;;;;;28.63;4.05;;;8.50;99.90;;;;;;5070551;28;20035;-64
2020/12/01 07:50:01;;;;;;;38.03;3.78;;;8.50;99.90;;;;;;5078624;28;20385;-62
2020/12/01 07:52:35;;;;;;;25.80;4.28;;;8.50;99.90;;;;;;5082043;28;20044;-60
2020/12/01 07:55:07;;;;;;;28.92;3.95;;;8.50;99.90;;;;;;5070789;28;20101;-63
2020/12/01 07:57:33;;;;;;;24.13;4.35;;;8.40;99.90;;;;;;5053690;28;20037;-62
2020/12/01 08:00:00;;;;;;;26.35;4.07;;;8.40;99.90;;;;;;5070081;28;20020;-63
2020/12/01 08:02:29;;;;;;;25.05;4.15;;;8.40;99.90;;;;;;5067041;28;20126;-63
2020/12/01 08:05:05;;;;;;;31.27;4.05;;;8.50;99.90;;;;;;5066594;28;20047;-62
2020/12/01 08:07:30;;;;;;;20.92;3.97;;;8.40;99.90;;;;;;5063031;28;20048;-62
2020/12/01 08:10:03;;;;;;;24.33;4.28;;;8.40;99.90;;;;;;5053227;28;20049;-62
2020/12/01 08:12:32;;;;;;;;;;;8.40;99.90;;;;;;5070196;28;20016;-62
2020/12/01 08:14:57;;;;;;;37.78;4.60;;;8.40;99.90;;;;;;5061447;28;19917;-62
2020/12/01 08:17:28;;;;;;;28.15;4.07;;;8.40;99.90;;;;;;5063448;28;20383;-63
2020/12/01 08:19:55;;;;;;;39.95;5.88;;;8.30;99.90;;;;;;5068095;28;20027;-63
2020/12/01 08:22:27;;;;;;;43.28;4.70;;;8.30;99.90;;;;;;5061314;28;20039;-61
2020/12/01 08:24:57;;;;;;;;;;;8.30;99.90;;;;;;5056746;28;20447;-62
2020/12/01 08:27:42;;;;;;;32.92;5.20;;;8.30;99.90;;;;;;5076822;28;19904;-64
2020/12/01 08:30:17;;;;;;;34.00;4.57;;;8.30;99.90;;;;;;5070897;28;20034;-63
2020/12/01 08:32:45;;;;;;;35.40;4.28;;;8.40;99.90;;;;;;5073214;28;20025;-64
2020/12/01 08:35:37;;;;;;;34.45;4.78;;;8.30;99.90;;;;;;5070602;28;20076;-62
2020/12/01 08:38:19;;;;;;;33.33;4.70;;;8.40;99.90;;;;;;5053492;28;20647;-64
2020/12/01 08:41:05;;;;;;;;;;;8.40;99.90;;;;;;5067790;28;20029;-63
2020/12/01 08:43:51;;;;;;;34.42;5.60;;;8.40;99.90;;;;;;5059985;28;19964;-61
2020/12/01 08:46:21;;;;;;;33.97;4.95;;;8.40;99.90;;;;;;5064968;28;20012;-64
2020/12/01 08:49:06;;;;;;;47.42;6.90;;;8.50;99.90;;;;;;5060139;28;20024;-61
2020/12/01 08:51:37;;;;;;;35.50;5.78;;;8.50;99.90;;;;;;5060699;28;20040;-62
2020/12/01 08:54:36;;;;;;;34.10;4.68;;;8.60;99.90;;;;;;5055365;28;20031;-63
2020/12/01 08:57:14;;;;;;;41.05;5.03;;;8.50;99.90;;;;;;5057975;28;20037;-63
2020/12/01 08:59:52;;;;;;;29.58;3.90;;;8.60;99.90;;;;;;5061231;28;20419;-60
2020/12/01 09:02:20;;;;;;;36.35;4.45;;;8.60;99.90;;;;;;5070316;28;20021;-63
2020/12/01 09:04:45;;;;;;;32.60;4.40;;;8.60;99.90;;;;;;5061125;28;20086;-61
2020/12/01 09:07:14;;;;;;;30.55;3.45;;;8.60;99.90;;;;;;5074088;28;20025;-61
2020/12/01 09:09:40;;;;;;;29.13;5.38;;;8.70;99.90;;;;;;5053725;28;20025;-61
2020/12/01 09:15:32;;;;;;;26.48;5.18;;;8.70;99.90;;;;;;5037799;28;20075;-61
2020/12/01 09:18:26;;;;;;;28.92;3.17;;;8.80;99.90;;;;;;5060917;28;20025;-61
2020/12/01 09:21:02;;;;;;;25.83;3.55;;;8.80;99.90;;;;;;5054344;28;20111;-63
2020/12/01 09:23:35;;;;;;;25.95;4.50;;;8.70;99.90;;;;;;5061188;28;20096;-63
2020/12/01 09:26:17;;;;;;;25.75;4.45;;;8.70;99.90;;;;;;5059728;28;20139;-63
2020/12/01 09:28:48;;;;;;;26.30;3.50;;;8.80;99.90;;;;;;5054394;28;20029;-63
2020/12/01 09:31:14;;;;;;;17.40;3.65;;;8.80;99.90;;;;;;5064228;28;20025;-63
2020/12/01 09:33:39;;;;;;;43.10;3.08;;;8.90;99.90;;;;;;5066636;28;20467;-62
2020/12/01 09:36:06;;;;;;;29.70;3.00;;;8.80;99.90;;;;;;5070150;28;20063;-62
2020/12/01 09:38:31;;;;;;;27.33;4.25;;;8.90;99.90;;;;;;5065600;28;20425;-62
2020/12/01 09:40:57;;;;;;;36.17;4.10;;;8.90;99.90;;;;;;5061622;28;20029;-64
2020/12/01 09:45:50;;;;;;;21.63;2.85;;;9.00;99.90;;;;;;5082252;28;20056;-63
2020/12/01 09:48:30;;;;;;;21.85;3.78;;;9.00;99.90;;;;;;5082676;28;20028;-63
2020/12/01 09:50:56;;;;;;;29.52;4.68;;;9.00;99.90;;;;;;5063662;28;20696;-63
2020/12/01 09:55:58;;;;;;;23.08;2.58;;;9.00;99.90;;;;;;5072317;28;20020;-62
2020/12/01 10:31:33;;;;;;;28.45;4.78;;;9.20;99.90;;;;;;5054195;28;20040;-62
2020/12/01 10:35:42;;;;;;;33.60;4.15;;;9.30;99.90;;;;;;5058065;28;20085;-62
2020/12/01 10:38:08;;;;;;;24.40;3.00;;;9.40;99.90;;;;;;5065498;28;20021;-63
2020/12/01 10:40:34;;;;;;;23.92;3.72;;;9.40;99.90;;;;;;5061825;28;20028;-62
2020/12/01 10:42:59;;;;;;;30.85;3.72;;;9.50;99.90;;;;;;5071396;28;20103;-61
2020/12/01 10:45:27;;;;;;;18.33;3.22;;;9.60;99.90;;;;;;5077006;28;20104;-61
2020/12/01 10:47:53;;;;;;;19.35;3.25;;;9.60;99.90;;;;;;5088132;28;20051;-64
2020/12/01 10:50:24;;;;;;;20.13;2.97;;;9.50;99.90;;;;;;5086658;28;20088;-61
2020/12/01 10:52:50;;;;;;;14.13;3.10;;;9.50;99.90;;;;;;5072445;28;20021;-62
2020/12/01 10:55:21;;;;;;;23.95;3.35;;;9.50;99.90;;;;;;5070712;28;20035;-62
2020/12/01 10:57:47;;;;;;;31.90;3.70;;;9.50;99.90;;;;;;5068210;28;20056;-61
2020/12/01 11:00:12;;;;;;;24.10;4.05;;;9.40;99.90;;;;;;5060608;28;20055;-63
2020/12/01 11:02:38;;;;;;;27.20;3.70;;;9.40;99.90;;;;;;5064391;28;20044;-62
2020/12/01 11:05:09;;;;;;;16.63;3.08;;;9.50;99.90;;;;;;5067157;28;20157;-62
2020/12/01 11:07:35;;;;;;;18.08;3.75;;;9.50;99.90;;;;;;5059873;28;20044;-62
2020/12/01 11:10:01;;;;;;;33.33;3.83;;;9.70;99.90;;;;;;5061527;28;20431;-61
2020/12/01 11:12:26;;;;;;;16.33;3.95;;;9.80;99.90;;;;;;5061048;28;20497;-63
2020/12/01 11:14:52;;;;;;;15.82;2.95;;;9.90;99.90;;;;;;5068130;28;20393;-63
2020/12/01 11:17:17;;;;;;;20.67;3.35;;;10.00;99.90;;;;;;5061736;28;20178;-62
2020/12/01 11:19:43;;;;;;;25.70;3.33;;;10.20;99.90;;;;;;5055102;28;20049;-62
2020/12/01 11:22:09;;;;;;;27.15;3.22;;;10.20;99.90;;;;;;5071323;28;20029;-61
2020/12/01 11:24:35;;;;;;;23.77;3.38;;;10.00;99.90;;;;;;5059995;28;20057;-62
2020/12/01 11:27:00;;;;;;;25.65;3.22;;;10.00;99.90;;;;;;5052367;28;20033;-63
2020/12/01 11:29:26;;;;;;;30.10;4.25;;;9.90;99.90;;;;;;5053927;28;20136;-62
2020/12/01 11:31:51;;;;;;;18.67;4.78;;;9.90;99.90;;;;;;5051411;28;20038;-64
2020/12/01 11:34:17;;;;;;;22.85;3.60;;;9.90;99.90;;;;;;5051524;28;20041;-62
2020/12/01 11:36:42;;;;;;;20.85;3.15;;;9.90;99.90;;;;;;5050721;28;20841;-64
2020/12/01 11:39:11;;;;;;;23.67;3.55;;;9.80;99.90;;;;;;5068850;28;20024;-63
2020/12/01 11:41:37;;;;;;;19.90;3.10;;;9.80;99.90;;;;;;5056393;28;20096;-64
2020/12/01 11:44:04;;;;;;;32.47;4.60;;;9.80;99.90;;;;;;5065304;28;20025;-63
2020/12/01 11:46:30;;;;;;;18.90;3.45;;;9.70;99.90;;;;;;5062548;28;20055;-63
2020/12/01 11:49:01;;;;;;;23.58;3.17;;;9.80;99.90;;;;;;5067736;28;20029;-62
2020/12/01 11:51:30;;;;;;;32.83;4.68;;;9.70;99.90;;;;;;5068539;28;20024;-62
2020/12/01 11:53:56;;;;;;;29.33;3.22;;;9.80;99.90;;;;;;5064646;28;20497;-64
2020/12/01 11:56:22;;;;;;;21.65;3.13;;;9.80;99.90;;;;;;5066228;28;20105;-62
2020/12/01 11:58:47;;;;;;;26.75;3.50;;;9.80;99.90;;;;;;5076219;28;20928;-63
2020/12/01 12:01:13;;;;;;;28.70;3.92;;;9.80;99.90;;;;;;5052067;28;20021;-63
2020/12/01 12:03:40;;;;;;;21.67;3.28;;;10.00;99.90;;;;;;5057618;28;20025;-61
2020/12/01 12:06:06;;;;;;;22.10;3.08;;;10.00;99.90;;;;;;5051749;28;20044;-63
2020/12/01 12:08:31;;;;;;;24.85;3.58;;;10.00;99.90;;;;;;5051493;28;20057;-62
2020/12/01 12:10:57;;;;;;;26.75;3.30;;;10.00;99.90;;;;;;5062902;28;20025;-63
2020/12/01 12:13:22;;;;;;;17.05;2.60;;;10.00;99.90;;;;;;5063020;28;20025;-62
2020/12/01 12:15:48;;;;;;;27.45;3.95;;;10.00;99.90;;;;;;5065874;28;20017;-62
2020/12/01 12:18:13;;;;;;;21.70;3.15;;;10.00;99.90;;;;;;5059599;28;20096;-64
2020/12/01 12:20:39;;;;;;;31.17;3.65;;;10.10;99.90;;;;;;5055702;28;20482;-63
2020/12/01 12:23:04;;;;;;;22.90;4.32;;;10.00;99.90;;;;;;5050734;28;20679;-62
2020/12/01 12:25:30;;;;;;;34.17;4.13;;;10.00;99.90;;;;;;5054426;28;20035;-62
2020/12/01 12:27:55;;;;;;;13.63;2.88;;;10.00;99.90;;;;;;5055797;28;20031;-63
2020/12/01 12:30:21;;;;;;;21.95;3.17;;;10.00;99.90;;;;;;5055905;28;20510;-61
2020/12/01 12:32:46;;;;;;;15.55;2.40;;;9.90;99.90;;;;;;5063289;28;20476;-63
2020/12/01 12:35:12;;;;;;;18.02;3.53;;;10.20;99.90;;;;;;5055642;28;20107;-65
2020/12/01 12:37:37;;;;;;;30.45;4.53;;;10.40;99.90;;;;;;5060710;28;20465;-62
2020/12/01 12:40:05;;;;;;;23.08;3.50;;;10.20;99.90;;;;;;5059963;28;20029;-63
2020/12/01 12:42:30;;;;;;;22.60;3.55;;;10.20;99.90;;;;;;5053840;28;20074;-61
2020/12/01 12:44:56;;;;;;;27.15;2.72;;;10.40;99.90;;;;;;5063429;28;20037;-61
2020/12/01 12:47:21;;;;;;;18.83;3.58;;;10.30;99.90;;;;;;5053802;28;20036;-63
2020/12/01 12:49:47;;;;;;;25.42;3.15;;;10.20;99.90;;;;;;5060701;28;20492;-60
2020/12/01 12:52:12;;;;;;;25.90;4.05;;;10.20;99.90;;;;;;5055515;28;20717;-61
2020/12/01 12:54:38;;;;;;;16.67;2.97;;;10.10;99.90;;;;;;5065826;28;20036;-64
2020/12/01 12:57:04;;;;;;;26.65;3.70;;;10.10;99.90;;;;;;5068602;28;20048;-61
2020/12/01 12:59:29;;;;;;;26.20;4.47;;;10.00;99.90;;;;;;5061410;28;20074;-61
2020/12/01 13:01:55;;;;;;;24.48;3.00;;;10.00;99.90;;;;;;5062874;28;20059;-62
2020/12/01 13:04:20;;;;;;;24.50;3.38;;;10.00;99.90;;;;;;5054550;28;20100;-62
2020/12/01 13:06:46;;;;;;;19.52;3.75;;;10.10;99.90;;;;;;5055591;28;20021;-63
2020/12/01 13:09:11;;;;;;;21.42;3.28;;;10.10;99.90;;;;;;5070918;28;20028;-61
2020/12/01 13:11:37;;;;;;;24.02;3.28;;;10.20;99.90;;;;;;5053110;28;20521;-61
2020/12/01 13:14:03;;;;;;;25.80;3.38;;;10.20;99.90;;;;;;5059512;28;20017;-59
2020/12/01 13:16:28;;;;;;;24.48;3.58;;;10.20;99.90;;;;;;5063131;28;20028;-61
2020/12/01 13:18:54;;;;;;;18.83;2.83;;;10.10;99.90;;;;;;5072325;28;20017;-61
2020/12/01 13:21:19;;;;;;;14.95;3.88;;;10.10;99.90;;;;;;5072921;28;20020;-62
2020/12/01 13:23:45;;;;;;;22.48;3.70;;;10.10;99.90;;;;;;5069361;28;20031;-62
2020/12/01 13:26:10;;;;;;;16.15;3.25;;;10.10;99.90;;;;;;5068905;28;20107;-61
2020/12/01 13:28:36;;;;;;;24.02;3.40;;;10.20;99.90;;;;;;5059977;28;20036;-64
2020/12/01 13:31:02;;;;;;;13.75;3.17;;;10.10;99.90;;;;;;5061266;28;20032;-64
2020/12/01 13:33:28;;;;;;;23.20;3.42;;;10.20;99.90;;;;;;5053914;28;20108;-61
2020/12/01 13:35:53;;;;;;;18.42;3.47;;;10.10;99.90;;;;;;5067934;28;20112;-61
2020/12/01 13:38:19;;;;;;;22.08;2.80;;;10.20;99.90;;;;;;5063009;28;20020;-62
2020/12/01 13:40:44;;;;;;;20.45;2.78;;;10.20;99.90;;;;;;5049741;28;20026;-65
2020/12/01 13:43:10;;;;;;;20.67;3.38;;;10.20;99.90;;;;;;5062294;28;20025;-63
2020/12/01 13:45:35;;;;;;;24.17;3.97;;;10.20;99.90;;;;;;5054264;28;20451;-63
2020/12/01 13:48:01;;;;;;;16.27;3.13;;;10.20;99.90;;;;;;5069511;28;20398;-61